sensor_id;sensor_type;location;lat;lon;timestamp;pressure;altitude;pressure_sealevel;temperature;humidity
24302;BME280;12421;49.732;20.078;2023-04-25T00:07:06;95665.08;;;11.71;81.14
24302;BME280;12421;49.732;20.078;2023-04-25T00:17:10;95661.80;;;11.65;81.04
24302;BME280;12421;49.732;20.078;2023-04-25T00:27:14;95663.98;;;11.32;80.81
24302;BME280;12421;49.732;20.078;2023-04-25T00:37:19;95674.55;;;10.88;80.91
24302;BME280;12421;49.732;20.078;2023-04-25T00:47:23;95676.63;;;10.62;81.41
24302;BME280;12421;49.732;20.078;2023-04-25T00:57:26;95682.73;;;10.57;81.61
24302;BME280;12421;49.732;20.078;2023-04-25T01:07:32;95685.27;;;10.55;81.94
24302;BME280;12421;49.732;20.078;2023-04-25T01:17:36;95679.87;;;10.48;82.13
24302;BME280;12421;49.732;20.078;2023-04-25T01:27:40;95677.94;;;10.36;82.16
24302;BME280;12421;49.732;20.078;2023-04-25T01:37:44;95676.60;;;10.23;82.46
24302;BME280;12421;49.732;20.078;2023-04-25T01:47:48;95677.48;;;10.17;82.93
24302;BME280;12421;49.732;20.078;2023-04-25T01:57:52;95678.67;;;10.18;83.04
24302;BME280;12421;49.732;20.078;2023-04-25T02:08:06;95681.80;;;10.19;82.85
24302;BME280;12421;49.732;20.078;2023-04-25T02:18:09;95687.45;;;10.12;82.61
24302;BME280;12421;49.732;20.078;2023-04-25T02:28:16;95689.21;;;10.05;82.81
24302;BME280;12421;49.732;20.078;2023-04-25T02:38:19;95700.13;;;10.04;82.78
24302;BME280;12421;49.732;20.078;2023-04-25T02:48:23;95695.83;;;10.00;82.37
24302;BME280;12421;49.732;20.078;2023-04-25T02:58:34;95691.31;;;9.93;81.89
24302;BME280;12421;49.732;20.078;2023-04-25T03:08:37;95689.63;;;9.84;82.59
24302;BME280;12421;49.732;20.078;2023-04-25T03:18:40;95697.64;;;9.86;82.84
24302;BME280;12421;49.732;20.078;2023-04-25T03:28:43;95693.66;;;9.84;82.92
24302;BME280;12421;49.732;20.078;2023-04-25T03:38:48;95700.36;;;9.89;83.50
24302;BME280;12421;49.732;20.078;2023-04-25T03:48:52;95714.98;;;9.86;83.32
24302;BME280;12421;49.732;20.078;2023-04-25T03:58:59;95723.14;;;9.76;82.88
24302;BME280;12421;49.732;20.078;2023-04-25T04:09:02;95731.58;;;9.69;83.18
24302;BME280;12421;49.732;20.078;2023-04-25T04:19:10;95739.61;;;9.63;82.90
24302;BME280;12421;49.732;20.078;2023-04-25T04:29:18;95758.31;;;9.58;82.22
24302;BME280;12421;49.732;20.078;2023-04-25T04:39:35;95766.02;;;9.39;82.00
24302;BME280;12421;49.732;20.078;2023-04-25T04:49:46;95775.78;;;9.26;81.66
24302;BME280;12421;49.732;20.078;2023-04-25T05:00:05;95780.05;;;9.23;81.74
24302;BME280;12421;49.732;20.078;2023-04-25T05:10:52;95778.80;;;9.24;81.67
24302;BME280;12421;49.732;20.078;2023-04-25T05:21:07;95780.98;;;9.29;81.88
24302;BME280;12421;49.732;20.078;2023-04-25T05:31:42;95787.35;;;9.32;81.84
24302;BME280;12421;49.732;20.078;2023-04-25T05:41:49;95792.86;;;9.36;81.57
24302;BME280;12421;49.732;20.078;2023-04-25T05:52:11;95804.76;;;9.37;81.15
24302;BME280;12421;49.732;20.078;2023-04-25T06:02:37;95816.20;;;9.42;80.74
24302;BME280;12421;49.732;20.078;2023-04-25T06:12:41;95818.31;;;9.41;79.19
24302;BME280;12421;49.732;20.078;2023-04-25T06:22:49;95822.90;;;9.25;78.91
24302;BME280;12421;49.732;20.078;2023-04-25T06:32:52;95835.99;;;9.19;79.67
24302;BME280;12421;49.732;20.078;2023-04-25T06:42:56;95832.23;;;9.16;80.20
24302;BME280;12421;49.732;20.078;2023-04-25T06:53:39;95835.82;;;9.27;79.97
24302;BME280;12421;49.732;20.078;2023-04-25T07:03:51;95844.02;;;9.42;79.65
24302;BME280;12421;49.732;20.078;2023-04-25T07:14:32;95845.96;;;9.70;78.58
24302;BME280;12421;49.732;20.078;2023-04-25T07:24:52;95845.84;;;9.76;76.37
24302;BME280;12421;49.732;20.078;2023-04-25T07:34:57;95845.04;;;9.58;76.94
24302;BME280;12421;49.732;20.078;2023-04-25T07:45:01;95849.13;;;9.77;76.84
24302;BME280;12421;49.732;20.078;2023-04-25T07:55:05;95844.23;;;10.31;75.19
24302;BME280;12421;49.732;20.078;2023-04-25T08:05:19;95847.55;;;10.37;74.65
24302;BME280;12421;49.732;20.078;2023-04-25T08:15:29;95853.02;;;10.43;74.73
24302;BME280;12421;49.732;20.078;2023-04-25T08:25:33;95852.92;;;10.46;74.54
24302;BME280;12421;49.732;20.078;2023-04-25T08:35:37;95854.38;;;10.51;74.17
24302;BME280;12421;49.732;20.078;2023-04-25T08:45:42;95860.35;;;10.45;73.21
24302;BME280;12421;49.732;20.078;2023-04-25T08:55:49;95863.65;;;10.33;73.56
24302;BME280;12421;49.732;20.078;2023-04-25T09:05:53;95869.52;;;10.17;73.98
24302;BME280;12421;49.732;20.078;2023-04-25T09:15:58;95875.42;;;10.04;73.92
24302;BME280;12421;49.732;20.078;2023-04-25T09:26:25;95880.94;;;10.09;74.62
24302;BME280;12421;49.732;20.078;2023-04-25T09:36:30;95878.91;;;10.26;74.01
24302;BME280;12421;49.732;20.078;2023-04-25T09:46:52;95872.34;;;10.61;73.70
24302;BME280;12421;49.732;20.078;2023-04-25T09:57:10;95864.78;;;11.15;72.15
24302;BME280;12421;49.732;20.078;2023-04-25T10:07:14;95865.50;;;11.43;71.86
24302;BME280;12421;49.732;20.078;2023-04-25T10:17:20;95864.11;;;11.82;69.30
24302;BME280;12421;49.732;20.078;2023-04-25T10:27:23;95858.95;;;12.14;68.23
24302;BME280;12421;49.732;20.078;2023-04-25T10:37:26;95862.36;;;12.38;65.79
24302;BME280;12421;49.732;20.078;2023-04-25T10:47:36;95865.44;;;12.50;63.36
24302;BME280;12421;49.732;20.078;2023-04-25T10:57:44;95855.35;;;12.52;62.23
24302;BME280;12421;49.732;20.078;2023-04-25T11:07:51;95854.56;;;12.44;62.30
24302;BME280;12421;49.732;20.078;2023-04-25T11:18:09;95856.37;;;12.13;64.66
24302;BME280;12421;49.732;20.078;2023-04-25T11:28:12;95852.27;;;12.14;65.36
24302;BME280;12421;49.732;20.078;2023-04-25T11:38:16;95851.61;;;12.58;64.66
24302;BME280;12421;49.732;20.078;2023-04-25T11:48:19;95853.36;;;12.77;64.03
24302;BME280;12421;49.732;20.078;2023-04-25T11:58:28;95852.20;;;12.80;64.41
24302;BME280;12421;49.732;20.078;2023-04-25T12:08:31;95856.86;;;12.64;65.26
24302;BME280;12421;49.732;20.078;2023-04-25T12:18:35;95854.77;;;12.28;66.07
24302;BME280;12421;49.732;20.078;2023-04-25T12:28:45;95857.39;;;11.99;67.29
24302;BME280;12421;49.732;20.078;2023-04-25T12:38:50;95862.54;;;11.70;67.79
24302;BME280;12421;49.732;20.078;2023-04-25T12:48:54;95870.30;;;11.35;68.88
24302;BME280;12421;49.732;20.078;2023-04-25T12:59:04;95865.77;;;11.17;68.90
24302;BME280;12421;49.732;20.078;2023-04-25T13:09:07;95863.29;;;11.06;69.57
24302;BME280;12421;49.732;20.078;2023-04-25T13:19:13;95858.65;;;11.38;69.87
24302;BME280;12421;49.732;20.078;2023-04-25T13:29:18;95854.83;;;11.70;68.37
24302;BME280;12421;49.732;20.078;2023-04-25T13:39:21;95854.38;;;11.99;67.34
24302;BME280;12421;49.732;20.078;2023-04-25T13:49:27;95860.31;;;11.95;67.36
24302;BME280;12421;49.732;20.078;2023-04-25T13:59:31;95866.73;;;11.60;67.18
24302;BME280;12421;49.732;20.078;2023-04-25T14:09:37;95868.92;;;11.06;69.14
24302;BME280;12421;49.732;20.078;2023-04-25T14:19:43;95872.09;;;10.63;69.50
24302;BME280;12421;49.732;20.078;2023-04-25T14:30:01;95867.07;;;10.23;71.02
24302;BME280;12421;49.732;20.078;2023-04-25T14:40:05;95871.36;;;10.07;72.25
24302;BME280;12421;49.732;20.078;2023-04-25T14:50:34;95872.35;;;10.02;73.85
24302;BME280;12421;49.732;20.078;2023-04-25T15:00:40;95879.60;;;10.06;74.06
24302;BME280;12421;49.732;20.078;2023-04-25T15:10:45;95888.46;;;9.95;74.61
24302;BME280;12421;49.732;20.078;2023-04-25T15:20:52;95897.56;;;9.67;73.88
24302;BME280;12421;49.732;20.078;2023-04-25T15:30:58;95886.66;;;9.97;73.87
24302;BME280;12421;49.732;20.078;2023-04-25T15:41:02;95880.70;;;10.38;73.82
24302;BME280;12421;49.732;20.078;2023-04-25T15:51:07;95875.78;;;10.63;72.65
24302;BME280;12421;49.732;20.078;2023-04-25T16:01:12;95867.23;;;10.86;72.98
24302;BME280;12421;49.732;20.078;2023-04-25T16:11:16;95862.20;;;10.84;72.99
24302;BME280;12421;49.732;20.078;2023-04-25T16:21:19;95873.40;;;10.73;73.43
24302;BME280;12421;49.732;20.078;2023-04-25T16:31:23;95881.86;;;10.59;73.90
24302;BME280;12421;49.732;20.078;2023-04-25T16:41:41;95887.05;;;10.56;74.24
24302;BME280;12421;49.732;20.078;2023-04-25T16:51:45;95889.05;;;10.60;74.70
24302;BME280;12421;49.732;20.078;2023-04-25T17:02:21;95896.55;;;10.61;74.31
24302;BME280;12421;49.732;20.078;2023-04-25T17:12:30;95892.23;;;10.52;74.20
24302;BME280;12421;49.732;20.078;2023-04-25T17:22:35;95901.66;;;10.08;74.08
24302;BME280;12421;49.732;20.078;2023-04-25T17:33:00;95910.34;;;9.68;74.58
24302;BME280;12421;49.732;20.078;2023-04-25T17:43:17;95916.64;;;9.38;75.05
24302;BME280;12421;49.732;20.078;2023-04-25T17:53:21;95926.09;;;9.06;75.64
24302;BME280;12421;49.732;20.078;2023-04-25T18:03:30;95937.42;;;8.84;76.51
24302;BME280;12421;49.732;20.078;2023-04-25T18:13:38;95949.61;;;8.51;77.24
24302;BME280;12421;49.732;20.078;2023-04-25T18:23:43;95965.48;;;8.44;78.24
24302;BME280;12421;49.732;20.078;2023-04-25T18:33:51;95970.29;;;8.39;78.56
24302;BME280;12421;49.732;20.078;2023-04-25T18:44:15;95979.30;;;8.23;78.89
24302;BME280;12421;49.732;20.078;2023-04-25T18:54:21;95994.33;;;8.12;78.75
24302;BME280;12421;49.732;20.078;2023-04-25T19:04:27;96005.92;;;7.86;78.94
24302;BME280;12421;49.732;20.078;2023-04-25T19:14:34;96011.73;;;7.60;78.55
24302;BME280;12421;49.732;20.078;2023-04-25T19:24:44;96015.82;;;7.29;78.74
24302;BME280;12421;49.732;20.078;2023-04-25T19:35:02;96023.83;;;7.03;78.74
24302;BME280;12421;49.732;20.078;2023-04-25T19:45:13;96031.02;;;7.00;79.91
24302;BME280;12421;49.732;20.078;2023-04-25T19:56:35;96041.45;;;7.04;80.10
24302;BME280;12421;49.732;20.078;2023-04-25T20:06:58;96045.00;;;6.82;79.99
24302;BME280;12421;49.732;20.078;2023-04-25T20:17:13;96053.50;;;6.69;80.59
24302;BME280;12421;49.732;20.078;2023-04-25T20:27:24;96050.52;;;6.54;80.26
24302;BME280;12421;49.732;20.078;2023-04-25T20:37:28;96055.41;;;6.53;80.94
24302;BME280;12421;49.732;20.078;2023-04-25T20:47:38;96066.86;;;6.59;81.35
24302;BME280;12421;49.732;20.078;2023-04-25T20:57:46;96074.29;;;6.67;81.74
24302;BME280;12421;49.732;20.078;2023-04-25T21:08:00;96077.06;;;6.68;82.04
24302;BME280;12421;49.732;20.078;2023-04-25T21:18:10;96083.56;;;6.64;81.95
24302;BME280;12421;49.732;20.078;2023-04-25T21:28:14;96090.47;;;6.51;81.87
24302;BME280;12421;49.732;20.078;2023-04-25T21:38:17;96095.45;;;6.39;82.01
24302;BME280;12421;49.732;20.078;2023-04-25T21:48:20;96098.98;;;6.36;82.31
24302;BME280;12421;49.732;20.078;2023-04-25T21:58:24;96103.31;;;6.37;83.29
24302;BME280;12421;49.732;20.078;2023-04-25T22:08:27;96108.09;;;6.50;83.67
24302;BME280;12421;49.732;20.078;2023-04-25T22:18:30;96112.84;;;6.64;83.63
24302;BME280;12421;49.732;20.078;2023-04-25T22:28:34;96117.77;;;6.81;83.80
24302;BME280;12421;49.732;20.078;2023-04-25T22:38:37;96127.39;;;6.94;83.32
24302;BME280;12421;49.732;20.078;2023-04-25T22:48:43;96132.80;;;6.94;83.15
24302;BME280;12421;49.732;20.078;2023-04-25T22:58:47;96138.09;;;6.88;83.69
24302;BME280;12421;49.732;20.078;2023-04-25T23:08:53;96144.21;;;6.86;82.97
24302;BME280;12421;49.732;20.078;2023-04-25T23:18:56;96150.13;;;6.88;82.59
24302;BME280;12421;49.732;20.078;2023-04-25T23:28:59;96157.55;;;6.97;82.59
24302;BME280;12421;49.732;20.078;2023-04-25T23:39:02;96163.73;;;7.07;82.71
24302;BME280;12421;49.732;20.078;2023-04-25T23:49:06;96168.30;;;7.06;81.00
24302;BME280;12421;49.732;20.078;2023-04-25T23:59:09;96177.02;;;7.05;81.27
